Adolfo Suárez Madrid-Barajas Airport

METAR LEMD TAF LEMD
19 °C
-1
°C
-
18
°C
27m
Age
17:27:01
LT
16:27
UTC
0 ft

1,000

2,000

3,000

4,000

5,000

VFR
<?= Yii::t('app', 'Wind direction') ?> <?= Yii::t('app', 'of'); ?>
VAR
18:35
Sunset
21%
Humidity
Wind shear
Closed/Snow
RWY visual range
RWY condition
Vert. visibility
Min. visibility
CAVOK
Trend
Correction
Special report
1028 hPa
QNH
METAR LEMD 041600Z 00000KT CAVOK 19/M04 Q1028 NOSIG
Clear
0 kt
0 kt
17:00
VFR
3 kt
18:00
VFR
3 kt
19:00
VFR
3 kt
20:00
VFR
8 kt
21:00
VFR
8 kt
22:00
VFR
8 kt
23:00
VFR
8 kt
10 km+
Visibility
None
Ceiling
None
Wind
metar-taf.com/LEMD

Metar-Taf.com

Visual decoder

We and third parties follow your internet behavior on our website with cookies. If you continue, we assume you agree with our cookie policy.